Time;durP1;ratioP1;P1;durP2;ratioP2;P2;SDS_P1;SDS_P2;PMS_P1;PMS_P2;Temp;Humidity;BMP_temperature;BMP_pressure;BME280_temperature;BME280_humidity;BME280_pressure;Samples;Min_cycle;Max_cycle;Signal;HPM_P1;HPM_P2
2023/01/10 00:01:27;;;;;;;8.80;2.80;;;;;;;0.33;49.54;101128.19;107396;1267;72782;-74
2023/01/10 00:03:54;;;;;;;9.00;2.50;;;;;;;0.34;49.49;101124.08;107328;1267;72761;-74
2023/01/10 00:06:21;;;;;;;7.60;2.60;;;;;;;0.34;49.44;101131.19;107373;1266;73936;-75
2023/01/10 00:08:48;;;;;;;9.10;2.30;;;;;;;0.35;49.25;101139.00;107273;1271;60841;-75
2023/01/10 00:14:01;;;;;;;5.40;2.10;;;;;;;0.37;49.04;101141.91;107310;1267;73556;-76
2023/01/10 00:16:28;;;;;;;7.50;2.20;;;;;;;0.39;49.06;101136.21;107341;1267;73948;-75
2023/01/10 00:18:55;;;;;;;9.90;2.40;;;;;;;0.41;49.13;101136.20;107285;1267;73206;-75
2023/01/10 00:21:22;;;;;;;10.80;2.50;;;;;;;0.40;49.05;101141.02;107311;1267;62254;-75
2023/01/10 00:23:49;;;;;;;7.40;2.30;;;;;;;0.39;48.64;101139.20;107341;1267;62551;-75
2023/01/10 00:26:16;;;;;;;7.50;2.50;;;;;;;0.38;48.63;101142.10;107401;1267;75317;-75
2023/01/10 00:28:44;;;;;;;6.80;2.10;;;;;;;0.36;48.63;101144.88;107354;1267;73251;-75
2023/01/10 00:31:12;;;;;;;7.50;2.30;;;;;;;0.32;48.55;101150.84;107349;1267;70996;-75
2023/01/10 00:33:39;;;;;;;8.20;2.20;;;;;;;0.31;48.40;101146.22;107316;1266;61932;-76
2023/01/10 00:36:07;;;;;;;7.10;2.30;;;;;;;0.33;48.37;101155.86;107306;1272;59700;-76
2023/01/10 00:38:34;;;;;;;8.30;2.30;;;;;;;0.34;48.30;101162.20;107669;1259;72260;-75
2023/01/10 00:41:02;;;;;;;10.20;2.50;;;;;;;0.34;48.52;101161.88;107703;1260;74207;-76
2023/01/10 00:46:15;;;;;;;8.50;2.20;;;;;;;0.34;48.40;101157.48;107670;1260;59646;-75
2023/01/10 00:48:42;;;;;;;10.80;2.40;;;;;;;0.35;48.59;101160.68;107662;1260;61018;-76
2023/01/10 00:51:09;;;;;;;9.80;2.30;;;;;;;0.37;48.59;101158.08;107605;1260;71018;-76
2023/01/10 00:53:35;;;;;;;11.40;3.10;;;;;;;0.36;48.31;101151.15;107663;1260;72974;-75
2023/01/10 00:56:03;;;;;;;8.90;2.90;;;;;;;0.34;48.33;101149.75;107676;1260;72770;-75
2023/01/10 00:58:30;;;;;;;9.10;2.70;;;;;;;0.33;48.56;101144.64;107667;1260;59641;-76
2023/01/10 01:00:56;;;;;;;9.20;2.50;;;;;;;0.33;48.63;101142.40;107668;1261;59804;-76
2023/01/10 01:03:24;;;;;;;7.70;2.50;;;;;;;0.32;48.89;101147.20;107620;1260;73016;-75
2023/01/10 01:05:51;;;;;;;7.80;2.60;;;;;;;0.31;49.11;101150.10;107667;1260;71582;-75
2023/01/10 01:08:18;;;;;;;9.90;3.40;;;;;;;0.30;49.05;101161.52;107675;1260;73412;-75
2023/01/10 01:10:45;;;;;;;7.70;2.30;;;;;;;0.28;49.09;101162.25;107668;1261;62629;-76
2023/01/10 01:13:19;;;;;;;7.70;2.10;;;;;;;0.26;49.15;101157.89;107692;1260;59680;-76
2023/01/10 01:15:47;;;;;;;6.30;2.40;;;;;;;0.23;49.28;101153.83;107722;1260;71972;-76
2023/01/10 01:18:16;;;;;;;9.50;2.90;;;;;;;0.22;49.41;101153.44;107637;1260;73328;-76
2023/01/10 01:20:46;;;;;;;12.10;2.80;;;;;;;0.21;49.56;101149.64;107661;1260;73128;-75
2023/01/10 01:23:14;;;;;;;11.80;3.00;;;;;;;0.19;49.93;101149.56;107622;1261;60890;-76
2023/01/10 01:25:41;;;;;;;8.80;2.70;;;;;;;0.17;50.07;101140.98;107657;1260;60290;-76
2023/01/10 01:28:11;;;;;;;8.40;2.40;;;;;;;0.17;50.26;101145.60;107631;1260;73225;-76
2023/01/10 01:30:37;;;;;;;6.80;2.40;;;;;;;0.18;50.30;101142.34;107578;1260;73568;-76
2023/01/10 01:33:04;;;;;;;9.00;2.80;;;;;;;0.17;50.39;101141.06;107571;1260;73425;-75
2023/01/10 01:35:32;;;;;;;11.20;2.30;;;;;;;0.15;50.50;101147.34;107653;1260;60397;-75
2023/01/10 01:37:59;;;;;;;8.40;2.20;;;;;;;0.13;50.69;101141.63;107621;1261;61136;-75
2023/01/10 01:40:26;;;;;;;9.00;3.20;;;;;;;0.11;51.11;101140.89;107665;1264;73461;-75
2023/01/10 01:42:54;;;;;;;9.60;3.10;;;;;;;0.06;51.11;101133.36;107639;1264;72287;-75
2023/01/10 01:45:21;;;;;;;9.50;3.00;;;;;;;0.05;51.38;101129.13;107631;1260;72671;-75
2023/01/10 05:54:18;;;;;;;16.80;6.10;;;;;;;-3.13;66.05;101304.55;105830;1281;613858;-73
2023/01/10 05:56:45;;;;;;;12.90;5.70;;;;;;;-2.79;64.30;101306.45;107280;1266;119366;-71
2023/01/10 05:59:12;;;;;;;11.50;5.80;;;;;;;-2.88;64.07;101307.96;107355;1266;59716;-71
2023/01/10 06:01:53;;;;;;;12.20;5.20;;;;;;;-2.73;63.47;101312.65;107338;1266;72492;-70
2023/01/10 06:04:20;;;;;;;12.20;6.10;;;;;;;-2.64;62.86;101316.79;107324;1269;73640;-70
2023/01/10 06:06:47;;;;;;;11.00;5.20;;;;;;;-2.68;62.59;101323.12;107344;1266;74883;-70
2023/01/10 06:09:14;;;;;;;12.90;5.50;;;;;;;-2.70;62.44;101324.16;107294;1266;61363;-70
2023/01/10 06:11:41;;;;;;;13.40;5.60;;;;;;;-2.75;62.25;101325.85;107324;1266;60861;-70
2023/01/10 06:14:09;;;;;;;14.80;6.40;;;;;;;-3.10;62.94;101331.08;107349;1266;72063;-70
2023/01/10 06:16:36;;;;;;;12.30;5.80;;;;;;;-3.19;63.28;101337.80;107341;1267;72705;-71
2023/01/10 06:19:03;;;;;;;12.80;5.70;;;;;;;-2.86;62.66;101335.55;107293;1267;72302;-70
2023/01/10 06:21:30;;;;;;;13.30;5.60;;;;;;;-2.80;62.32;101337.89;107290;1267;63925;-70
2023/01/10 06:23:57;;;;;;;13.80;5.90;;;;;;;-2.78;62.11;101340.46;107284;1267;61215;-70
2023/01/10 06:26:24;;;;;;;12.40;6.20;;;;;;;-2.75;61.86;101338.33;107321;1267;73128;-70
2023/01/10 06:28:51;;;;;;;12.00;5.40;;;;;;;-2.78;61.30;101343.24;107282;1267;72916;-71
2023/01/10 06:31:18;;;;;;;11.80;5.70;;;;;;;-2.83;60.95;101348.11;107309;1267;71432;-71
2023/01/10 06:33:51;;;;;;;13.90;6.10;;;;;;;-2.89;60.55;101348.70;107277;1266;62376;-70
2023/01/10 06:36:18;;;;;;;14.50;6.10;;;;;;;-2.92;60.37;101350.04;107361;1266;62089;-70
2023/01/10 06:38:45;;;;;;;13.30;6.00;;;;;;;-2.95;60.17;101352.43;107290;1266;75235;-70
2023/01/10 06:41:12;;;;;;;11.30;5.90;;;;;;;-2.99;60.01;101351.41;107357;1266;74833;-70
2023/01/10 06:43:46;;;;;;;15.50;6.00;;;;;;;-3.00;60.00;101353.85;107318;1272;72833;-70
2023/01/10 06:46:15;;;;;;;13.10;6.20;;;;;;;-3.01;59.95;101349.89;107325;1267;60768;-70
2023/01/10 06:48:44;;;;;;;16.50;6.20;;;;;;;-2.97;59.96;101355.97;107298;1266;60128;-70
2023/01/10 06:51:12;;;;;;;13.30;5.90;;;;;;;-2.96;59.93;101355.27;107315;1267;71755;-71
2023/01/10 06:53:40;;;;;;;10.70;5.90;;;;;;;-2.94;59.94;101349.15;107267;1269;74093;-71
2023/01/10 06:56:08;;;;;;;13.30;6.20;;;;;;;-2.92;59.70;101354.78;107276;1267;72374;-70
2023/01/10 06:58:37;;;;;;;16.70;6.30;;;;;;;-2.91;59.71;101355.33;107243;1269;64171;-70
2023/01/10 07:01:15;;;;;;;12.40;5.70;;;;;;;-2.86;59.69;101357.29;107302;1269;59453;-70
2023/01/10 07:03:42;;;;;;;13.20;6.00;;;;;;;-2.81;59.61;101364.33;107251;1269;72641;-71
2023/01/10 07:06:10;;;;;;;11.30;5.40;;;;;;;-2.78;59.55;101363.28;107253;1268;72185;-71
2023/01/10 07:08:39;;;;;;;12.20;6.20;;;;;;;-2.72;59.36;101370.23;107229;1268;73312;-70
2023/01/10 07:11:07;;;;;;;12.10;5.40;;;;;;;-2.66;59.28;101375.98;107343;1268;61531;-71
2023/01/10 07:13:34;;;;;;;13.70;5.90;;;;;;;-2.59;59.24;101379.06;107275;1268;59826;-71
2023/01/10 07:16:03;;;;;;;11.30;5.50;;;;;;;-2.52;58.96;101384.45;107312;1268;72796;-73
2023/01/10 07:18:31;;;;;;;18.30;6.40;;;;;;;-2.47;58.79;101392.40;107337;1269;72881;-71
2023/01/10 07:20:57;;;;;;;11.30;5.70;;;;;;;-2.44;58.72;101391.91;107293;1270;73626;-71
2023/01/10 07:23:25;;;;;;;15.60;6.70;;;;;;;-2.39;58.64;101390.30;107264;1269;62528;-70
2023/01/10 07:25:51;;;;;;;15.10;6.20;;;;;;;-2.32;58.67;101395.96;107277;1269;60101;-70
2023/01/10 07:28:18;;;;;;;14.50;7.20;;;;;;;-2.26;58.41;101393.39;107265;1269;71711;-70
2023/01/10 07:30:45;;;;;;;13.60;5.90;;;;;;;-2.22;58.10;101396.86;107296;1272;73662;-70
2023/01/10 07:33:12;;;;;;;15.70;6.50;;;;;;;-2.20;57.89;101396.80;107236;1269;72648;-70
2023/01/10 07:35:39;;;;;;;11.70;6.10;;;;;;;-2.16;57.75;101398.70;107271;1268;59892;-70
2023/01/10 07:38:07;;;;;;;12.60;6.30;;;;;;;-2.14;57.45;101397.92;107294;1266;61224;-71
2023/01/10 07:40:35;;;;;;;16.90;7.00;;;;;;;-2.13;57.24;101397.88;107320;1266;73894;-72
2023/01/10 07:43:02;;;;;;;15.60;6.30;;;;;;;-2.13;57.19;101396.98;107294;1266;74134;-70
2023/01/10 07:45:29;;;;;;;12.60;6.40;;;;;;;-2.17;56.80;101393.05;107325;1266;72201;-72
2023/01/10 07:48:00;;;;;;;13.50;6.60;;;;;;;-2.19;56.74;101403.85;107355;1266;59608;-72
2023/01/10 07:50:28;;;;;;;13.00;6.40;;;;;;;-2.20;56.82;101405.91;107313;1266;62667;-71
2023/01/10 07:52:56;;;;;;;13.30;6.30;;;;;;;-2.16;56.94;101405.14;107328;1266;73818;-71
2023/01/10 07:55:23;;;;;;;12.10;6.30;;;;;;;-2.13;56.85;101400.69;107408;1266;74858;-72
2023/01/10 07:57:50;;;;;;;12.90;6.60;;;;;;;-2.12;56.77;101400.36;107318;1266;73956;-70
2023/01/10 08:00:18;;;;;;;12.90;6.80;;;;;;;-2.10;56.50;101401.95;107343;1266;60572;-70
2023/01/10 08:02:45;;;;;;;11.80;5.60;;;;;;;-2.06;56.58;101405.41;107262;1266;59868;-72
2023/01/10 08:05:13;;;;;;;14.90;7.50;;;;;;;-2.05;56.29;101403.73;107233;1266;71747;-72
2023/01/10 08:07:40;;;;;;;13.10;6.20;;;;;;;-2.03;56.21;101405.85;107284;1266;72955;-71
2023/01/10 08:10:08;;;;;;;12.40;6.20;;;;;;;-2.01;56.01;101406.81;107347;1266;74776;-71
2023/01/10 08:12:35;;;;;;;11.60;6.50;;;;;;;-2.01;55.75;101403.27;107433;1263;60379;-71
2023/01/10 08:15:02;;;;;;;14.00;6.20;;;;;;;-2.00;55.67;101406.14;107508;1263;60504;-72
2023/01/10 08:17:32;;;;;;;14.00;6.50;;;;;;;-1.97;55.52;101413.52;107505;1263;73671;-71
2023/01/10 08:20:00;;;;;;;12.30;6.60;;;;;;;-1.97;55.47;101417.71;107482;1263;71020;-71
2023/01/10 08:22:27;;;;;;;16.90;6.80;;;;;;;-1.94;55.57;101422.64;107427;1263;73769;-71
2023/01/10 08:24:54;;;;;;;12.00;6.00;;;;;;;-1.90;55.09;101424.24;107507;1263;59598;-71
2023/01/10 08:27:21;;;;;;;11.90;6.50;;;;;;;-1.91;54.78;101430.21;107720;1260;60930;-71
2023/01/10 08:29:48;;;;;;;12.90;6.00;;;;;;;-1.93;54.69;101427.43;107710;1260;75445;-71
2023/01/10 08:32:15;;;;;;;12.70;6.20;;;;;;;-1.91;54.48;101421.01;107694;1260;73206;-71
2023/01/10 08:34:42;;;;;;;14.60;6.00;;;;;;;-1.90;54.38;101425.65;107666;1260;72808;-72
2023/01/10 08:37:12;;;;;;;13.70;6.40;;;;;;;-1.89;54.16;101418.87;107652;1260;60865;-70
2023/01/10 08:39:39;;;;;;;12.80;6.00;;;;;;;-1.87;54.11;101423.52;107692;1258;60115;-71
2023/01/10 08:42:06;;;;;;;12.70;6.30;;;;;;;-1.81;54.14;101422.59;107749;1260;74445;-71
2023/01/10 08:44:33;;;;;;;13.10;6.40;;;;;;;-2.11;54.64;101415.13;107747;1259;73972;-70
2023/01/10 08:47:01;;;;;;;11.70;5.70;;;;;;;-2.16;55.12;101422.06;107684;1259;74746;-71
2023/01/10 08:49:28;;;;;;;15.90;5.80;;;;;;;-1.87;54.61;101417.11;107727;1260;62726;-71
2023/01/10 08:51:55;;;;;;;12.40;6.00;;;;;;;-1.60;53.80;101414.52;107810;1262;62294;-71
2023/01/10 08:54:22;;;;;;;13.40;5.80;;;;;;;-1.44;53.76;101408.71;107859;1258;73795;-71
2023/01/10 08:56:49;;;;;;;14.10;5.80;;;;;;;-1.28;53.48;101400.64;107762;1260;74941;-70
2023/01/10 08:59:16;;;;;;;11.70;5.80;;;;;;;-1.16;52.99;101400.63;107739;1260;74725;-73
2023/01/10 09:01:43;;;;;;;14.30;5.60;;;;;;;-1.03;52.85;101400.48;107684;1260;61772;-71
2023/01/10 09:04:11;;;;;;;12.20;6.00;;;;;;;-0.98;51.88;101396.21;107716;1260;61394;-71
2023/01/10 09:06:38;;;;;;;12.50;5.60;;;;;;;-1.00;51.47;101395.58;107805;1260;72394;-72
2023/01/10 09:09:05;;;;;;;10.90;5.50;;;;;;;-0.98;51.61;101395.27;107780;1260;72814;-71
2023/01/10 09:11:32;;;;;;;11.30;5.80;;;;;;;-0.93;51.51;101395.27;107736;1258;71529;-72
2023/01/10 09:13:59;;;;;;;11.00;5.90;;;;;;;-1.06;52.20;101393.45;107711;1259;62631;-71
2023/01/10 09:16:26;;;;;;;13.50;5.30;;;;;;;-0.85;51.18;101390.17;107760;1260;59226;-71
2023/01/10 09:18:54;;;;;;;11.40;5.20;;;;;;;-0.84;50.78;101385.65;107740;1260;73594;-71
2023/01/10 09:21:21;;;;;;;11.00;5.60;;;;;;;-0.92;50.30;101377.94;107781;1259;74992;-70
2023/01/10 09:23:48;;;;;;;15.10;5.70;;;;;;;-0.98;50.28;101379.83;107813;1259;74931;-73
2023/01/10 09:26:15;;;;;;;11.20;5.50;;;;;;;-1.04;50.33;101380.63;107828;1259;60987;-72
2023/01/10 09:28:42;;;;;;;12.00;5.10;;;;;;;-1.07;50.38;101387.73;107671;1258;61402;-70
2023/01/10 09:31:10;;;;;;;11.70;5.30;;;;;;;-1.26;50.75;101392.49;107776;1259;73569;-72
2023/01/10 09:33:40;;;;;;;12.40;5.40;;;;;;;-1.34;51.22;101387.22;107712;1260;73336;-71
2023/01/10 09:36:14;;;;;;;8.30;4.70;;;;;;;-1.03;50.43;101384.20;107744;1260;71741;-72
2023/01/10 09:38:42;;;;;;;11.60;5.80;;;;;;;-0.99;50.03;101385.89;107722;1260;62731;-71
2023/01/10 09:41:39;;;;;;;12.30;5.00;;;;;;;-1.02;50.25;101388.66;107815;1259;60860;-71
2023/01/10 09:44:38;;;;;;;11.10;5.10;;;;;;;-1.03;50.15;101393.27;107721;1258;75225;-72
2023/01/10 09:47:24;;;;;;;14.10;5.50;;;;;;;-0.98;50.16;101396.96;107779;1262;75407;-72
2023/01/10 09:50:14;;;;;;;9.70;4.80;;;;;;;-0.91;50.13;101406.02;107851;1260;71480;-72
2023/01/10 09:52:46;;;;;;;12.30;5.20;;;;;;;-0.88;50.13;101407.48;107840;1262;61071;-72
2023/01/10 09:55:30;;;;;;;10.60;5.20;;;;;;;-0.87;49.89;101411.58;107854;1260;61576;-70
2023/01/10 16:36:42;;;;;;;11.70;4.40;;;;;;;-0.76;43.93;101508.84;105994;1285;613451;-64
2023/01/10 16:39:20;;;;;;;14.30;4.60;;;;;;;-0.24;42.33;101502.83;107321;1271;138098;-63
2023/01/10 16:44:33;;;;;;;14.30;4.00;;;;;;;-0.25;42.25;101511.46;107491;1269;72369;-64
2023/01/10 16:47:00;;;;;;;16.80;4.00;;;;;;;-0.24;42.19;101510.93;107456;1269;72310;-64
2023/01/10 16:49:31;;;;;;;8.50;3.60;;;;;;;-0.26;41.72;101510.77;107364;1264;73354;-64
2023/01/10 16:51:58;;;;;;;12.40;3.70;;;;;;;-0.26;41.92;101514.67;107515;1264;62505;-64
2023/01/10 16:54:25;;;;;;;10.90;4.30;;;;;;;-0.26;42.28;101509.56;107405;1264;59511;-63
2023/01/10 16:56:52;;;;;;;11.60;3.90;;;;;;;-0.26;42.39;101511.14;107457;1264;73013;-63
2023/01/10 16:59:19;;;;;;;11.40;4.10;;;;;;;-0.28;42.22;101509.40;108045;1260;73633;-63
2023/01/10 17:01:51;;;;;;;13.30;4.20;;;;;;;-0.27;42.28;101504.89;108055;1254;74712;-64
2023/01/10 17:04:25;;;;;;;16.00;3.50;;;;;;;-0.29;42.25;101506.83;108111;1257;60301;-64
2023/01/10 17:06:55;;;;;;;15.10;3.80;;;;;;;-0.31;42.20;101502.52;108114;1254;61038;-64
2023/01/10 17:09:26;;;;;;;11.10;4.30;;;;;;;-0.34;42.09;101499.04;107829;1263;74623;-63
2023/01/10 17:12:06;;;;;;;8.40;3.60;;;;;;;-0.36;42.24;101502.91;107935;1262;73381;-63
2023/01/10 17:14:34;;;;;;;7.10;3.40;;;;;;;-0.39;42.35;101501.49;107874;1257;74648;-63
2023/01/10 17:17:01;;;;;;;11.40;3.90;;;;;;;-0.40;42.10;101503.16;107980;1258;61288;-64
2023/01/10 17:19:29;;;;;;;9.30;4.00;;;;;;;-0.39;42.25;101502.92;107963;1256;59534;-63
2023/01/10 17:21:56;;;;;;;9.70;3.40;;;;;;;-0.40;42.22;101503.20;107986;1257;74720;-63
2023/01/10 17:24:23;;;;;;;13.50;3.90;;;;;;;-0.39;42.10;101511.64;108021;1257;74792;-64
2023/01/10 17:26:50;;;;;;;9.00;3.10;;;;;;;-0.40;42.29;101513.85;107955;1255;73472;-64
2023/01/10 17:29:17;;;;;;;9.90;3.30;;;;;;;-0.40;42.19;101514.36;107895;1257;62198;-64
2023/01/10 17:31:44;;;;;;;13.80;3.60;;;;;;;-0.40;42.01;101514.86;107759;1257;62016;-64
2023/01/10 17:34:11;;;;;;;10.20;3.30;;;;;;;-0.38;41.87;101515.54;107930;1257;73912;-65
2023/01/10 17:36:41;;;;;;;10.40;3.60;;;;;;;-0.38;41.92;101519.42;107905;1258;70925;-64
2023/01/10 17:39:08;;;;;;;12.30;3.40;;;;;;;-0.39;42.01;101521.10;107893;1260;73695;-64
2023/01/10 17:41:35;;;;;;;11.50;3.60;;;;;;;-0.38;42.04;101520.98;108019;1259;59767;-65
2023/01/10 17:44:03;;;;;;;10.30;3.20;;;;;;;-0.36;42.20;101524.77;107944;1261;61957;-65
2023/01/10 17:46:31;;;;;;;10.70;3.70;;;;;;;-0.35;42.23;101524.02;107703;1257;75426;-64
2023/01/10 17:49:01;;;;;;;13.20;3.20;;;;;;;-0.35;42.06;101529.92;107910;1257;75100;-65
2023/01/10 17:51:28;;;;;;;13.00;3.20;;;;;;;-0.41;42.19;101536.00;107849;1257;70825;-63
2023/01/10 17:53:55;;;;;;;14.80;3.70;;;;;;;-0.34;41.82;101535.20;107911;1257;61108;-64
2023/01/10 17:56:23;;;;;;;11.80;3.70;;;;;;;-0.34;41.99;101539.92;107887;1257;60604;-64
2023/01/10 17:58:51;;;;;;;9.60;3.70;;;;;;;-0.35;42.21;101541.84;107902;1257;74465;-65
2023/01/10 18:01:20;;;;;;;12.80;3.80;;;;;;;-0.37;42.12;101540.52;107877;1257;73838;-65
2023/01/10 18:03:51;;;;;;;13.60;3.30;;;;;;;-0.40;42.32;101544.77;107901;1256;74855;-64
2023/01/10 18:06:19;;;;;;;14.90;3.90;;;;;;;-0.42;42.87;101544.70;107881;1255;62557;-66
2023/01/10 18:08:50;;;;;;;23.50;4.50;;;;;;;-0.48;44.38;101543.73;107918;1257;60952;-65
2023/01/10 22:02:26;;;;;;;11.90;3.90;;;;;;;-3.49;67.55;101691.45;105624;1282;613116;-68
2023/01/10 22:04:53;;;;;;;14.40;4.20;;;;;;;-2.90;64.30;101696.30;107309;1265;121602;-65
2023/01/10 22:07:24;;;;;;;11.60;4.00;;;;;;;-2.92;63.66;101702.42;107411;1268;59528;-66
2023/01/10 22:09:51;;;;;;;25.20;5.00;;;;;;;-2.93;63.41;101712.77;107397;1267;73503;-67
2023/01/10 22:12:23;;;;;;;11.20;5.00;;;;;;;-2.92;63.32;101720.02;107449;1266;70898;-65
2023/01/10 22:14:51;;;;;;;12.10;4.30;;;;;;;-2.85;63.14;101724.79;107392;1266;72064;-66
2023/01/10 22:17:18;;;;;;;11.70;4.20;;;;;;;-2.84;63.06;101729.89;107434;1267;59417;-66
2023/01/10 22:19:45;;;;;;;11.30;3.90;;;;;;;-2.85;63.01;101732.59;107445;1266;59337;-66
2023/01/10 22:22:12;;;;;;;10.80;3.90;;;;;;;-2.87;62.82;101733.65;107385;1267;71302;-65
2023/01/10 22:24:41;;;;;;;11.50;4.60;;;;;;;-2.90;62.62;101731.48;107404;1266;73004;-66
2023/01/10 22:27:08;;;;;;;10.50;4.00;;;;;;;-2.95;62.59;101732.27;107347;1265;72897;-67
2023/01/10 22:29:36;;;;;;;11.50;4.00;;;;;;;-2.98;62.50;101736.11;107760;1260;62233;-67
2023/01/10 22:32:03;;;;;;;13.30;4.10;;;;;;;-3.01;62.59;101737.73;107744;1259;59512;-66
2023/01/10 22:34:36;;;;;;;16.70;4.80;;;;;;;-3.02;62.58;101745.35;107736;1260;72043;-66
2023/01/10 22:37:03;;;;;;;13.30;4.00;;;;;;;-3.03;62.47;101746.14;107730;1260;72771;-66
2023/01/10 22:39:30;;;;;;;12.30;3.90;;;;;;;-3.04;62.36;101747.80;107714;1260;72785;-67
2023/01/10 22:41:57;;;;;;;14.30;4.10;;;;;;;-3.04;62.25;101743.81;107728;1260;59509;-66
2023/01/10 22:44:25;;;;;;;12.40;4.10;;;;;;;-3.05;61.96;101741.45;107768;1259;59820;-65
2023/01/10 22:46:53;;;;;;;13.00;3.90;;;;;;;-3.05;61.87;101741.81;107887;1259;72545;-65
2023/01/10 22:49:20;;;;;;;11.40;4.00;;;;;;;-3.04;61.79;101739.45;107813;1260;72349;-66
2023/01/10 22:51:47;;;;;;;10.60;3.80;;;;;;;-3.02;61.53;101738.71;107825;1259;73007;-66
2023/01/10 22:54:17;;;;;;;14.00;4.30;;;;;;;-3.03;61.05;101739.15;107727;1259;61134;-66
2023/01/10 22:56:45;;;;;;;10.50;3.80;;;;;;;-3.05;60.56;101744.39;107812;1259;59539;-65
2023/01/10 22:59:14;;;;;;;11.80;4.10;;;;;;;-3.06;60.28;101748.31;107724;1260;71972;-66
2023/01/10 23:02:00;;;;;;;14.80;4.50;;;;;;;-3.08;60.06;101757.33;107695;1260;72170;-65
2023/01/10 23:04:29;;;;;;;14.40;4.20;;;;;;;-3.08;60.07;101756.97;107570;1260;71743;-65
2023/01/10 23:06:58;;;;;;;11.70;4.10;;;;;;;-3.07;59.93;101757.73;107723;1260;59521;-66
2023/01/10 23:09:26;;;;;;;15.80;3.90;;;;;;;-3.07;59.89;101761.25;107692;1260;59630;-68
2023/01/10 23:11:52;;;;;;;12.10;3.80;;;;;;;-3.06;59.80;101763.27;107641;1264;73407;-66
2023/01/10 23:14:19;;;;;;;12.80;4.60;;;;;;;-3.07;59.74;101761.94;107895;1258;72097;-65
2023/01/10 23:16:46;;;;;;;17.00;4.30;;;;;;;-3.09;59.74;101761.40;107818;1259;72048;-65
2023/01/10 23:19:13;;;;;;;11.40;4.10;;;;;;;-3.07;59.78;101760.89;107840;1259;61411;-66
2023/01/10 23:21:40;;;;;;;11.70;3.90;;;;;;;-3.07;59.81;101762.16;107872;1259;59630;-67
2023/01/10 23:24:07;;;;;;;13.40;4.40;;;;;;;-3.10;59.92;101765.36;107786;1259;71105;-66
2023/01/10 23:26:35;;;;;;;11.60;4.00;;;;;;;-3.14;60.11;101762.41;107847;1259;73166;-66
2023/01/10 23:29:02;;;;;;;17.20;5.10;;;;;;;-3.16;60.18;101766.95;107815;1260;73870;-66
2023/01/10 23:31:30;;;;;;;10.60;4.10;;;;;;;-3.18;60.32;101767.90;107845;1259;60442;-66
2023/01/10 23:33:57;;;;;;;12.80;4.20;;;;;;;-3.20;60.41;101765.63;107878;1257;61525;-66
2023/01/10 23:36:24;;;;;;;9.40;3.90;;;;;;;-3.23;60.54;101773.75;107915;1257;74286;-66
2023/01/10 23:38:51;;;;;;;10.50;3.50;;;;;;;-3.28;60.56;101769.80;107894;1257;72772;-67
2023/01/10 23:41:20;;;;;;;12.60;4.50;;;;;;;-3.34;60.63;101768.27;107866;1257;73380;-66
2023/01/10 23:43:48;;;;;;;12.00;4.10;;;;;;;-3.43;60.68;101765.72;107899;1257;61010;-66
2023/01/10 23:46:15;;;;;;;9.30;4.10;;;;;;;-3.49;60.72;101767.09;107867;1257;59624;-66
2023/01/10 23:48:44;;;;;;;11.10;4.50;;;;;;;-3.53;60.90;101767.47;107950;1257;72611;-66
2023/01/10 23:51:12;;;;;;;11.90;4.20;;;;;;;-3.59;61.06;101771.64;107852;1258;73492;-65
2023/01/10 23:53:39;;;;;;;15.00;4.50;;;;;;;-3.62;61.09;101769.15;107852;1259;70561;-67
2023/01/10 23:56:11;;;;;;;13.40;4.10;;;;;;;-3.66;60.98;101770.54;107860;1259;60387;-66
2023/01/10 23:58:38;;;;;;;;;;;;;;;-3.67;60.86;101770.98;107907;1259;59514;-65
